Flight Track Log - Related Links

Times and Time Zones

All times are in EDT time to prevent confusion due to time zone crossing. See the WIG1044 flight status page for this flight to view local times or setup timezone preferences in your user account.

Time Position Orientation Groundspeed Altitude Reporting Facility
EDT Latitude Longitude Course Direction KTS MPH feet Rate Location/Type
Fri 06:58:02 AM 42.9500 -71.4167 56° Northeast 133 153 1,000  Level KA90
Fri 06:58:56 AM 42.9667 -71.3833 56° Northeast 133 153 2,300 1,158 Climbing KA90
Fri 06:59:56 AM 43.0000 -71.3500 36° Northeast 170 196 3,200 950 Climbing KA90
Fri 07:00:56 AM 43.0333 -71.3000 48° Northeast 174 200 4,200 1,100 Climbing KA90
Fri 07:01:56 AM 43.0667 -71.2500 48° Northeast 175 201 5,400 1,050 Climbing KA90
Fri 07:02:56 AM 43.1000 -71.2167 36° Northeast 168 193 6,300 850 Climbing KA90
Fri 07:03:56 AM 43.1333 -71.1667 48° Northeast 177 204 7,100 850 Climbing KA90
Fri 07:04:56 AM 43.1667 -71.1167 48° Northeast 179 206 8,000 950 Climbing KA90
Fri 07:05:56 AM 43.2000 -71.0667 48° Northeast 179 206 9,000 545 Climbing KA90
Fri 07:06:57 AM 43.2500 -71.0167 36° Northeast 200 230 9,100 50 Climbing KA90
Fri 07:07:56 AM 43.2833 -70.9500 56° Northeast 214 246 9,100 -44 Level KA90
Fri 07:09:13 AM 43.3397 -70.8861 39° Northeast 205 236 9,000 -43 Descending Boston Center
Fri 07:10:15 AM 43.3803 -70.8303 45° Northeast 205 236 9,000  Level Boston Center
Fri 07:11:16 AM 43.4231 -70.7744 43° Northeast 205 236 9,000  Level Boston Center
Fri 07:12:17 AM 43.4642 -70.7197 44° Northeast 206 237 9,000  Level Boston Center
Fri 07:13:18 AM 43.5042 -70.6656 44° Northeast 204 235 9,000  Level Boston Center
Fri 07:14:19 AM 43.5469 -70.6064 45° Northeast 204 235 9,000  Level Boston Center
Fri 07:15:20 AM 43.5869 -70.5517 45° Northeast 203 234 9,000  Level Boston Center
Fri 07:16:21 AM 43.6272 -70.4964 45° Northeast 203 234 9,000  Level Boston Center
Fri 07:17:22 AM 43.6675 -70.4417 44° Northeast 203 234 9,000  Level Boston Center
Fri 07:18:24 AM 43.7094 -70.3831 45° Northeast 202 232 9,000  Level Boston Center
Fri 07:19:25 AM 43.7489 -70.3275 45° Northeast 202 232 9,000  Level Boston Center
Fri 07:20:26 AM 43.7900 -70.2739 43° Northeast 203 234 9,000  Level Boston Center
Fri 07:21:27 AM 43.8311 -70.2133 47° Northeast 203 234 9,000  Level Boston Center
Fri 07:22:28 AM 43.8719 -70.1589 44° Northeast 204 235 9,000  Level Boston Center
Fri 07:23:29 AM 43.9114 -70.1061 44° Northeast 202 232 9,000  Level Boston Center
Fri 07:24:30 AM 43.9547 -70.0450 45° Northeast 206 237 9,000  Level Boston Center
Fri 07:25:31 AM 43.9944 -69.9892 45° Northeast 203 234 9,000  Level Boston Center
Fri 07:26:33 AM 44.0342 -69.9350 44° Northeast 202 232 9,000  Level Boston Center
Fri 07:27:34 AM 44.0742 -69.8775 46° Northeast 205 236 9,000  Level Boston Center
Fri 07:28:35 AM 44.1172 -69.8158 46° Northeast 206 237 9,000  Level Boston Center
Fri 07:29:36 AM 44.1567 -69.7575 47° Northeast 207 238 9,000  Level Boston Center
Fri 07:30:37 AM 44.1983 -69.7011 44° Northeast 207 238 9,000  Level Boston Center
Fri 07:31:38 AM 44.2386 -69.6433 46° Northeast 208 239 9,000  Level Boston Center
Fri 07:32:39 AM 44.2800 -69.5861 45° Northeast 208 239 9,000  Level Boston Center
Fri 07:33:40 AM 44.3211 -69.5281 45° Northeast 208 239 9,000  Level Boston Center
Fri 07:34:41 AM 44.3614 -69.4694 46° Northeast 208 239 9,000  Level Boston Center
Fri 07:35:42 AM 44.4022 -69.4100 46° Northeast 209 241 9,000  Level Boston Center
Fri 07:36:44 AM 44.4425 -69.3503 47° Northeast 209 241 9,000  Level Boston Center
Fri 07:37:45 AM 44.4781 -69.2836 53° Northeast 210 242 9,000 -295 Level Boston Center
Fri 07:38:46 AM 44.5125 -69.2128 56° Northeast 214 246 8,400 -738 Descending Boston Center
Fri 07:39:47 AM 44.5500 -69.1394 54° Northeast 226 260 7,500 -984 Descending Boston Center
Fri 07:40:48 AM 44.5897 -69.0672 52° Northeast 231 266 6,400 -1,131 Descending Boston Center
Fri 07:41:49 AM 44.6297 -68.9953 52° Northeast 231 266 5,200 -1,377 Descending Boston Center
Fri 07:42:50 AM 44.6781 -68.9097 52° Northeast 232 267 3,600 -1,525 Descending Boston Center
Fri 07:43:51 AM 44.7186 -68.8436 49° Northeast 229 264 2,100 -829 Descending Boston Center
Fri 07:44:53 AM 44.7489 -68.7950 49° Northeast 180 207 1,900 -585 Descending Boston Center
Fri 07:45:54 AM 44.7786 -68.7867 11° North 128 147 900 -787 Descending Boston Center
Fri 07:46:55 AM 44.8019 -68.8172 317° Northwest 114 131 300 -590 Descending Boston Center

Login

Don't have an account? Register now (free) for customized features, flight alerts, and more!